sensor_id;sensor_type;location;lat;lon;timestamp;P1;durP1;ratioP1;P2;durP2;ratioP2
20065;SDS011;10193;48.884;9.182;2023-03-02T00:02:21;13.30;;;10.77;;
20065;SDS011;10193;48.884;9.182;2023-03-02T00:04:48;14.47;;;11.63;;
20065;SDS011;10193;48.884;9.182;2023-03-02T00:07:20;13.70;;;11.23;;
20065;SDS011;10193;48.884;9.182;2023-03-02T00:09:49;12.93;;;10.70;;
20065;SDS011;10193;48.884;9.182;2023-03-02T00:12:16;12.87;;;11.27;;
20065;SDS011;10193;48.884;9.182;2023-03-02T00:14:42;12.13;;;10.70;;
20065;SDS011;10193;48.884;9.182;2023-03-02T00:17:09;13.80;;;11.67;;
20065;SDS011;10193;48.884;9.182;2023-03-02T00:19:36;15.00;;;11.60;;
20065;SDS011;10193;48.884;9.182;2023-03-02T00:22:03;14.60;;;12.57;;
20065;SDS011;10193;48.884;9.182;2023-03-02T00:24:31;13.07;;;11.17;;
20065;SDS011;10193;48.884;9.182;2023-03-02T00:26:58;14.27;;;11.23;;
20065;SDS011;10193;48.884;9.182;2023-03-02T00:29:24;12.83;;;11.03;;
20065;SDS011;10193;48.884;9.182;2023-03-02T00:31:51;12.43;;;11.03;;
20065;SDS011;10193;48.884;9.182;2023-03-02T00:34:18;14.53;;;11.47;;
20065;SDS011;10193;48.884;9.182;2023-03-02T00:36:44;13.70;;;11.23;;
20065;SDS011;10193;48.884;9.182;2023-03-02T00:39:13;13.67;;;11.33;;
20065;SDS011;10193;48.884;9.182;2023-03-02T00:41:45;13.40;;;11.13;;
20065;SDS011;10193;48.884;9.182;2023-03-02T00:44:12;12.67;;;11.03;;
20065;SDS011;10193;48.884;9.182;2023-03-02T00:46:41;14.77;;;11.63;;
20065;SDS011;10193;48.884;9.182;2023-03-02T00:49:08;13.80;;;11.33;;
20065;SDS011;10193;48.884;9.182;2023-03-02T00:51:35;15.30;;;11.20;;
20065;SDS011;10193;48.884;9.182;2023-03-02T00:54:02;12.97;;;11.20;;
20065;SDS011;10193;48.884;9.182;2023-03-02T00:56:29;14.13;;;11.23;;
20065;SDS011;10193;48.884;9.182;2023-03-02T00:58:57;13.23;;;11.80;;
20065;SDS011;10193;48.884;9.182;2023-03-02T01:01:24;12.80;;;11.00;;
20065;SDS011;10193;48.884;9.182;2023-03-02T01:03:50;14.23;;;11.50;;
20065;SDS011;10193;48.884;9.182;2023-03-02T01:06:17;14.27;;;11.87;;
20065;SDS011;10193;48.884;9.182;2023-03-02T01:08:45;14.20;;;12.27;;
20065;SDS011;10193;48.884;9.182;2023-03-02T01:11:13;13.70;;;11.30;;
20065;SDS011;10193;48.884;9.182;2023-03-02T01:13:41;13.47;;;11.10;;
20065;SDS011;10193;48.884;9.182;2023-03-02T01:16:09;13.70;;;11.90;;
20065;SDS011;10193;48.884;9.182;2023-03-02T01:18:37;14.43;;;11.97;;
20065;SDS011;10193;48.884;9.182;2023-03-02T01:21:04;14.37;;;11.77;;
20065;SDS011;10193;48.884;9.182;2023-03-02T01:23:33;12.97;;;11.00;;
20065;SDS011;10193;48.884;9.182;2023-03-02T01:26:00;14.87;;;12.40;;
20065;SDS011;10193;48.884;9.182;2023-03-02T01:28:27;13.33;;;11.67;;
20065;SDS011;10193;48.884;9.182;2023-03-02T01:30:54;13.93;;;11.57;;
20065;SDS011;10193;48.884;9.182;2023-03-02T01:33:22;13.00;;;11.40;;
20065;SDS011;10193;48.884;9.182;2023-03-02T01:35:49;14.50;;;11.53;;
20065;SDS011;10193;48.884;9.182;2023-03-02T01:38:15;13.37;;;10.53;;
20065;SDS011;10193;48.884;9.182;2023-03-02T01:40:42;13.03;;;11.40;;
20065;SDS011;10193;48.884;9.182;2023-03-02T01:43:10;14.40;;;11.90;;
20065;SDS011;10193;48.884;9.182;2023-03-02T01:45:48;13.67;;;11.10;;
20065;SDS011;10193;48.884;9.182;2023-03-02T01:48:17;14.07;;;11.33;;
20065;SDS011;10193;48.884;9.182;2023-03-02T01:50:49;14.40;;;11.03;;
20065;SDS011;10193;48.884;9.182;2023-03-02T01:53:17;15.83;;;11.67;;
20065;SDS011;10193;48.884;9.182;2023-03-02T01:55:44;13.93;;;11.63;;
20065;SDS011;10193;48.884;9.182;2023-03-02T01:58:12;14.03;;;11.70;;
20065;SDS011;10193;48.884;9.182;2023-03-02T02:00:39;13.40;;;11.40;;
20065;SDS011;10193;48.884;9.182;2023-03-02T02:03:08;13.37;;;11.17;;
20065;SDS011;10193;48.884;9.182;2023-03-02T02:05:38;15.30;;;12.13;;
20065;SDS011;10193;48.884;9.182;2023-03-02T02:08:08;15.53;;;12.20;;
20065;SDS011;10193;48.884;9.182;2023-03-02T02:10:35;15.90;;;12.03;;
20065;SDS011;10193;48.884;9.182;2023-03-02T02:13:03;13.83;;;10.73;;
20065;SDS011;10193;48.884;9.182;2023-03-02T02:15:30;14.87;;;12.00;;
20065;SDS011;10193;48.884;9.182;2023-03-02T02:17:57;14.93;;;12.50;;
20065;SDS011;10193;48.884;9.182;2023-03-02T02:20:26;13.73;;;11.83;;
20065;SDS011;10193;48.884;9.182;2023-03-02T02:22:58;13.47;;;11.07;;
20065;SDS011;10193;48.884;9.182;2023-03-02T02:25:35;14.07;;;11.53;;
20065;SDS011;10193;48.884;9.182;2023-03-02T02:28:12;15.03;;;11.33;;
20065;SDS011;10193;48.884;9.182;2023-03-02T02:30:42;13.93;;;11.87;;
20065;SDS011;10193;48.884;9.182;2023-03-02T02:33:12;13.80;;;11.67;;
20065;SDS011;10193;48.884;9.182;2023-03-02T02:35:41;14.73;;;11.97;;
20065;SDS011;10193;48.884;9.182;2023-03-02T02:38:11;15.70;;;12.40;;
20065;SDS011;10193;48.884;9.182;2023-03-02T02:40:43;14.60;;;11.70;;
20065;SDS011;10193;48.884;9.182;2023-03-02T02:43:15;15.37;;;12.83;;
20065;SDS011;10193;48.884;9.182;2023-03-02T02:45:44;15.57;;;12.37;;
20065;SDS011;10193;48.884;9.182;2023-03-02T02:48:12;15.37;;;12.43;;
20065;SDS011;10193;48.884;9.182;2023-03-02T02:50:42;13.57;;;11.77;;
20065;SDS011;10193;48.884;9.182;2023-03-02T02:53:10;13.50;;;11.57;;
20065;SDS011;10193;48.884;9.182;2023-03-02T02:55:39;16.47;;;12.63;;
20065;SDS011;10193;48.884;9.182;2023-03-02T02:58:10;14.63;;;11.60;;
20065;SDS011;10193;48.884;9.182;2023-03-02T03:00:45;14.37;;;11.30;;
20065;SDS011;10193;48.884;9.182;2023-03-02T03:03:13;14.30;;;12.20;;
20065;SDS011;10193;48.884;9.182;2023-03-02T03:05:53;16.53;;;12.43;;
20065;SDS011;10193;48.884;9.182;2023-03-02T03:11:18;16.17;;;12.07;;
20065;SDS011;10193;48.884;9.182;2023-03-02T03:13:49;16.60;;;12.30;;
20065;SDS011;10193;48.884;9.182;2023-03-02T03:16:20;16.27;;;12.63;;
20065;SDS011;10193;48.884;9.182;2023-03-02T03:18:48;15.77;;;12.53;;
20065;SDS011;10193;48.884;9.182;2023-03-02T03:21:17;16.57;;;12.77;;
20065;SDS011;10193;48.884;9.182;2023-03-02T03:23:44;14.73;;;12.87;;
20065;SDS011;10193;48.884;9.182;2023-03-02T03:26:11;15.33;;;12.63;;
20065;SDS011;10193;48.884;9.182;2023-03-02T03:28:37;17.10;;;13.07;;
20065;SDS011;10193;48.884;9.182;2023-03-02T03:31:06;17.23;;;13.27;;
20065;SDS011;10193;48.884;9.182;2023-03-02T03:33:32;15.23;;;12.43;;
20065;SDS011;10193;48.884;9.182;2023-03-02T03:35:59;15.73;;;12.20;;
20065;SDS011;10193;48.884;9.182;2023-03-02T03:38:26;15.97;;;13.10;;
20065;SDS011;10193;48.884;9.182;2023-03-02T03:40:54;16.23;;;12.70;;
20065;SDS011;10193;48.884;9.182;2023-03-02T03:43:20;17.40;;;13.50;;
20065;SDS011;10193;48.884;9.182;2023-03-02T03:45:47;16.50;;;13.03;;
20065;SDS011;10193;48.884;9.182;2023-03-02T03:48:16;17.97;;;13.87;;
20065;SDS011;10193;48.884;9.182;2023-03-02T03:50:43;17.03;;;13.37;;
20065;SDS011;10193;48.884;9.182;2023-03-02T03:53:10;17.43;;;14.27;;
20065;SDS011;10193;48.884;9.182;2023-03-02T03:55:36;17.53;;;13.13;;
20065;SDS011;10193;48.884;9.182;2023-03-02T03:58:03;17.80;;;14.00;;
20065;SDS011;10193;48.884;9.182;2023-03-02T04:00:30;16.33;;;12.13;;
20065;SDS011;10193;48.884;9.182;2023-03-02T04:02:57;16.10;;;12.70;;
20065;SDS011;10193;48.884;9.182;2023-03-02T04:05:25;15.27;;;12.27;;
20065;SDS011;10193;48.884;9.182;2023-03-02T04:07:51;16.63;;;13.07;;
20065;SDS011;10193;48.884;9.182;2023-03-02T04:10:18;16.27;;;12.40;;
20065;SDS011;10193;48.884;9.182;2023-03-02T04:12:45;14.27;;;11.87;;
20065;SDS011;10193;48.884;9.182;2023-03-02T04:15:12;15.10;;;12.03;;
20065;SDS011;10193;48.884;9.182;2023-03-02T04:17:40;17.27;;;13.47;;
20065;SDS011;10193;48.884;9.182;2023-03-02T04:20:09;16.93;;;11.50;;
20065;SDS011;10193;48.884;9.182;2023-03-02T04:22:41;15.83;;;11.90;;
20065;SDS011;10193;48.884;9.182;2023-03-02T04:25:08;16.83;;;12.60;;
20065;SDS011;10193;48.884;9.182;2023-03-02T04:27:36;14.80;;;11.97;;
20065;SDS011;10193;48.884;9.182;2023-03-02T04:30:04;16.00;;;12.60;;
20065;SDS011;10193;48.884;9.182;2023-03-02T04:32:32;16.97;;;12.80;;
20065;SDS011;10193;48.884;9.182;2023-03-02T04:34:59;17.10;;;12.77;;
20065;SDS011;10193;48.884;9.182;2023-03-02T04:37:25;15.57;;;12.73;;
20065;SDS011;10193;48.884;9.182;2023-03-02T04:39:54;15.07;;;11.70;;
20065;SDS011;10193;48.884;9.182;2023-03-02T04:42:20;14.63;;;11.97;;
20065;SDS011;10193;48.884;9.182;2023-03-02T04:44:48;15.43;;;11.83;;
20065;SDS011;10193;48.884;9.182;2023-03-02T04:47:15;14.23;;;11.43;;
20065;SDS011;10193;48.884;9.182;2023-03-02T04:49:41;14.00;;;12.03;;
20065;SDS011;10193;48.884;9.182;2023-03-02T04:52:08;15.97;;;11.97;;
20065;SDS011;10193;48.884;9.182;2023-03-02T04:54:35;16.13;;;12.17;;
20065;SDS011;10193;48.884;9.182;2023-03-02T04:57:03;14.70;;;11.47;;
20065;SDS011;10193;48.884;9.182;2023-03-02T04:59:30;16.20;;;11.87;;
20065;SDS011;10193;48.884;9.182;2023-03-02T05:01:57;16.77;;;12.80;;
20065;SDS011;10193;48.884;9.182;2023-03-02T05:04:25;15.77;;;11.83;;
20065;SDS011;10193;48.884;9.182;2023-03-02T05:06:53;15.43;;;12.20;;
20065;SDS011;10193;48.884;9.182;2023-03-02T05:09:20;15.03;;;11.67;;
20065;SDS011;10193;48.884;9.182;2023-03-02T05:11:51;15.00;;;11.37;;
20065;SDS011;10193;48.884;9.182;2023-03-02T05:14:19;14.30;;;11.53;;
20065;SDS011;10193;48.884;9.182;2023-03-02T05:16:46;14.60;;;11.50;;
20065;SDS011;10193;48.884;9.182;2023-03-02T05:19:13;15.23;;;12.00;;
20065;SDS011;10193;48.884;9.182;2023-03-02T05:21:40;14.10;;;10.83;;
20065;SDS011;10193;48.884;9.182;2023-03-02T05:24:07;15.70;;;11.67;;
20065;SDS011;10193;48.884;9.182;2023-03-02T05:26:34;13.90;;;11.83;;
20065;SDS011;10193;48.884;9.182;2023-03-02T05:29:02;14.07;;;11.07;;
20065;SDS011;10193;48.884;9.182;2023-03-02T05:31:31;15.30;;;11.97;;
20065;SDS011;10193;48.884;9.182;2023-03-02T05:33:59;16.10;;;12.40;;
20065;SDS011;10193;48.884;9.182;2023-03-02T05:36:27;14.57;;;11.63;;
20065;SDS011;10193;48.884;9.182;2023-03-02T05:38:53;15.43;;;11.80;;
20065;SDS011;10193;48.884;9.182;2023-03-02T05:41:20;16.50;;;12.13;;
20065;SDS011;10193;48.884;9.182;2023-03-02T05:43:47;17.20;;;11.57;;
20065;SDS011;10193;48.884;9.182;2023-03-02T05:46:13;14.97;;;11.83;;
20065;SDS011;10193;48.884;9.182;2023-03-02T05:48:42;14.93;;;11.90;;
20065;SDS011;10193;48.884;9.182;2023-03-02T05:51:09;15.57;;;11.87;;
20065;SDS011;10193;48.884;9.182;2023-03-02T05:53:36;15.23;;;11.60;;
20065;SDS011;10193;48.884;9.182;2023-03-02T05:56:02;16.03;;;12.37;;
20065;SDS011;10193;48.884;9.182;2023-03-02T05:58:29;14.83;;;11.97;;
20065;SDS011;10193;48.884;9.182;2023-03-02T06:00:56;14.80;;;11.37;;
20065;SDS011;10193;48.884;9.182;2023-03-02T06:03:23;14.43;;;11.03;;
20065;SDS011;10193;48.884;9.182;2023-03-02T06:05:51;15.50;;;12.33;;
20065;SDS011;10193;48.884;9.182;2023-03-02T06:08:18;15.50;;;11.63;;
20065;SDS011;10193;48.884;9.182;2023-03-02T06:10:46;15.37;;;11.80;;
20065;SDS011;10193;48.884;9.182;2023-03-02T06:13:14;15.83;;;12.13;;
20065;SDS011;10193;48.884;9.182;2023-03-02T06:15:41;14.90;;;11.80;;
20065;SDS011;10193;48.884;9.182;2023-03-02T06:18:08;16.33;;;11.93;;
20065;SDS011;10193;48.884;9.182;2023-03-02T06:20:36;15.27;;;11.83;;
20065;SDS011;10193;48.884;9.182;2023-03-02T06:23:04;18.63;;;13.53;;
20065;SDS011;10193;48.884;9.182;2023-03-02T06:25:31;17.27;;;12.93;;
20065;SDS011;10193;48.884;9.182;2023-03-02T06:27:59;15.80;;;12.17;;
20065;SDS011;10193;48.884;9.182;2023-03-02T06:30:26;18.20;;;13.37;;
20065;SDS011;10193;48.884;9.182;2023-03-02T06:32:53;16.53;;;12.73;;
20065;SDS011;10193;48.884;9.182;2023-03-02T06:35:20;15.47;;;12.10;;
20065;SDS011;10193;48.884;9.182;2023-03-02T06:37:47;17.67;;;13.47;;
20065;SDS011;10193;48.884;9.182;2023-03-02T06:40:16;16.63;;;13.10;;
20065;SDS011;10193;48.884;9.182;2023-03-02T06:42:42;17.13;;;13.07;;
20065;SDS011;10193;48.884;9.182;2023-03-02T06:45:10;18.20;;;12.77;;
20065;SDS011;10193;48.884;9.182;2023-03-02T06:47:37;15.40;;;11.97;;
20065;SDS011;10193;48.884;9.182;2023-03-02T06:50:04;15.73;;;12.73;;
20065;SDS011;10193;48.884;9.182;2023-03-02T06:52:34;16.43;;;12.47;;
20065;SDS011;10193;48.884;9.182;2023-03-02T06:55:00;16.73;;;13.13;;
20065;SDS011;10193;48.884;9.182;2023-03-02T06:57:29;17.97;;;12.93;;
20065;SDS011;10193;48.884;9.182;2023-03-02T06:59:58;15.83;;;12.43;;
20065;SDS011;10193;48.884;9.182;2023-03-02T07:02:25;14.10;;;12.30;;
20065;SDS011;10193;48.884;9.182;2023-03-02T07:04:51;16.67;;;13.10;;
20065;SDS011;10193;48.884;9.182;2023-03-02T07:07:18;15.00;;;12.50;;
20065;SDS011;10193;48.884;9.182;2023-03-02T07:09:45;16.20;;;12.50;;
20065;SDS011;10193;48.884;9.182;2023-03-02T07:12:11;15.93;;;12.63;;
20065;SDS011;10193;48.884;9.182;2023-03-02T07:14:39;18.23;;;13.37;;
20065;SDS011;10193;48.884;9.182;2023-03-02T07:17:06;15.60;;;12.83;;
20065;SDS011;10193;48.884;9.182;2023-03-02T07:19:33;17.80;;;13.33;;
20065;SDS011;10193;48.884;9.182;2023-03-02T07:22:02;14.23;;;11.60;;
20065;SDS011;10193;48.884;9.182;2023-03-02T07:24:29;15.90;;;13.00;;
20065;SDS011;10193;48.884;9.182;2023-03-02T07:26:55;16.97;;;13.13;;
20065;SDS011;10193;48.884;9.182;2023-03-02T07:29:22;17.03;;;12.90;;
20065;SDS011;10193;48.884;9.182;2023-03-02T07:31:50;15.57;;;12.37;;
20065;SDS011;10193;48.884;9.182;2023-03-02T07:34:21;14.97;;;12.40;;
20065;SDS011;10193;48.884;9.182;2023-03-02T07:36:48;15.47;;;12.50;;
20065;SDS011;10193;48.884;9.182;2023-03-02T07:39:14;16.63;;;12.90;;
20065;SDS011;10193;48.884;9.182;2023-03-02T07:41:41;15.43;;;12.80;;
20065;SDS011;10193;48.884;9.182;2023-03-02T07:44:08;17.43;;;12.70;;
20065;SDS011;10193;48.884;9.182;2023-03-02T07:46:34;16.73;;;12.83;;
20065;SDS011;10193;48.884;9.182;2023-03-02T07:49:02;16.33;;;12.90;;
20065;SDS011;10193;48.884;9.182;2023-03-02T07:51:29;16.30;;;12.77;;
20065;SDS011;10193;48.884;9.182;2023-03-02T07:53:56;15.80;;;12.33;;
20065;SDS011;10193;48.884;9.182;2023-03-02T07:56:22;14.83;;;12.13;;
20065;SDS011;10193;48.884;9.182;2023-03-02T07:58:49;15.17;;;11.80;;
20065;SDS011;10193;48.884;9.182;2023-03-02T08:01:15;15.53;;;13.23;;
20065;SDS011;10193;48.884;9.182;2023-03-02T08:03:42;15.40;;;12.33;;
20065;SDS011;10193;48.884;9.182;2023-03-02T08:06:10;16.10;;;12.50;;
20065;SDS011;10193;48.884;9.182;2023-03-02T08:08:37;15.90;;;12.63;;
20065;SDS011;10193;48.884;9.182;2023-03-02T08:11:04;15.30;;;12.03;;
20065;SDS011;10193;48.884;9.182;2023-03-02T08:13:32;15.60;;;12.33;;
20065;SDS011;10193;48.884;9.182;2023-03-02T08:15:59;16.33;;;13.07;;
20065;SDS011;10193;48.884;9.182;2023-03-02T08:18:26;16.20;;;12.90;;
20065;SDS011;10193;48.884;9.182;2023-03-02T08:20:52;16.33;;;13.10;;
20065;SDS011;10193;48.884;9.182;2023-03-02T08:23:21;15.73;;;13.10;;
20065;SDS011;10193;48.884;9.182;2023-03-02T08:25:48;14.60;;;12.10;;
20065;SDS011;10193;48.884;9.182;2023-03-02T08:28:14;15.70;;;12.63;;
20065;SDS011;10193;48.884;9.182;2023-03-02T08:30:41;15.47;;;12.63;;
20065;SDS011;10193;48.884;9.182;2023-03-02T08:33:08;14.63;;;12.10;;
20065;SDS011;10193;48.884;9.182;2023-03-02T08:35:34;14.63;;;12.03;;
20065;SDS011;10193;48.884;9.182;2023-03-02T08:38:01;13.53;;;11.50;;
20065;SDS011;10193;48.884;9.182;2023-03-02T08:40:29;14.10;;;11.70;;
20065;SDS011;10193;48.884;9.182;2023-03-02T08:42:56;14.80;;;12.03;;
20065;SDS011;10193;48.884;9.182;2023-03-02T08:45:23;15.10;;;11.37;;
20065;SDS011;10193;48.884;9.182;2023-03-02T08:47:51;14.47;;;11.60;;
20065;SDS011;10193;48.884;9.182;2023-03-02T08:50:18;15.77;;;10.90;;
20065;SDS011;10193;48.884;9.182;2023-03-02T08:52:45;13.73;;;11.60;;
20065;SDS011;10193;48.884;9.182;2023-03-02T08:55:12;14.00;;;11.27;;
20065;SDS011;10193;48.884;9.182;2023-03-02T08:57:40;13.30;;;10.47;;
20065;SDS011;10193;48.884;9.182;2023-03-02T09:00:07;13.70;;;11.00;;
20065;SDS011;10193;48.884;9.182;2023-03-02T09:02:38;12.77;;;10.60;;
20065;SDS011;10193;48.884;9.182;2023-03-02T09:05:05;14.07;;;11.13;;
20065;SDS011;10193;48.884;9.182;2023-03-02T09:07:32;13.63;;;11.03;;
20065;SDS011;10193;48.884;9.182;2023-03-02T09:09:59;16.07;;;10.30;;
20065;SDS011;10193;48.884;9.182;2023-03-02T09:12:26;13.50;;;10.57;;
20065;SDS011;10193;48.884;9.182;2023-03-02T09:14:54;12.57;;;10.53;;
20065;SDS011;10193;48.884;9.182;2023-03-02T09:17:21;12.53;;;10.47;;
20065;SDS011;10193;48.884;9.182;2023-03-02T09:19:47;12.73;;;10.07;;
20065;SDS011;10193;48.884;9.182;2023-03-02T09:22:14;14.13;;;11.20;;
20065;SDS011;10193;48.884;9.182;2023-03-02T09:24:41;12.80;;;10.33;;
20065;SDS011;10193;48.884;9.182;2023-03-02T09:27:08;13.03;;;10.80;;
20065;SDS011;10193;48.884;9.182;2023-03-02T09:29:34;12.20;;;10.07;;
20065;SDS011;10193;48.884;9.182;2023-03-02T09:32:03;13.00;;;10.60;;
20065;SDS011;10193;48.884;9.182;2023-03-02T09:34:29;12.83;;;10.50;;
20065;SDS011;10193;48.884;9.182;2023-03-02T09:36:56;13.27;;;10.37;;
20065;SDS011;10193;48.884;9.182;2023-03-02T09:39:23;12.27;;;10.35;;
20065;SDS011;10193;48.884;9.182;2023-03-02T09:42:06;13.07;;;10.13;;
20065;SDS011;10193;48.884;9.182;2023-03-02T09:45:02;13.07;;;9.93;;
20065;SDS011;10193;48.884;9.182;2023-03-02T09:47:43;11.35;;;9.93;;
20065;SDS011;10193;48.884;9.182;2023-03-02T09:50:27;11.13;;;9.93;;
20065;SDS011;10193;48.884;9.182;2023-03-02T09:53:11;10.93;;;9.60;;
20065;SDS011;10193;48.884;9.182;2023-03-02T09:55:50;14.68;;;11.18;;
20065;SDS011;10193;48.884;9.182;2023-03-02T09:58:19;12.37;;;10.53;;
20065;SDS011;10193;48.884;9.182;2023-03-02T10:00:49;10.98;;;9.60;;
20065;SDS011;10193;48.884;9.182;2023-03-02T10:03:18;11.17;;;9.97;;
20065;SDS011;10193;48.884;9.182;2023-03-02T10:05:47;13.00;;;10.10;;
20065;SDS011;10193;48.884;9.182;2023-03-02T10:08:17;11.75;;;9.73;;
20065;SDS011;10193;48.884;9.182;2023-03-02T10:10:52;10.15;;;9.00;;
20065;SDS011;10193;48.884;9.182;2023-03-02T10:13:24;10.53;;;9.40;;
20065;SDS011;10193;48.884;9.182;2023-03-02T10:15:55;12.75;;;10.63;;
20065;SDS011;10193;48.884;9.182;2023-03-02T10:18:34;10.38;;;9.27;;
20065;SDS011;10193;48.884;9.182;2023-03-02T10:21:08;13.45;;;9.57;;
20065;SDS011;10193;48.884;9.182;2023-03-02T10:23:47;10.57;;;9.10;;
20065;SDS011;10193;48.884;9.182;2023-03-02T10:26:19;11.45;;;9.32;;
20065;SDS011;10193;48.884;9.182;2023-03-02T10:28:53;12.45;;;9.35;;
20065;SDS011;10193;48.884;9.182;2023-03-02T10:31:26;11.60;;;9.27;;
20065;SDS011;10193;48.884;9.182;2023-03-02T10:33:56;10.98;;;9.13;;
20065;SDS011;10193;48.884;9.182;2023-03-02T10:36:23;12.45;;;9.82;;
20065;SDS011;10193;48.884;9.182;2023-03-02T10:38:51;11.77;;;9.70;;
20065;SDS011;10193;48.884;9.182;2023-03-02T10:41:21;10.95;;;9.73;;
20065;SDS011;10193;48.884;9.182;2023-03-02T10:43:53;10.77;;;9.40;;
20065;SDS011;10193;48.884;9.182;2023-03-02T10:46:23;10.90;;;9.38;;
20065;SDS011;10193;48.884;9.182;2023-03-02T10:48:50;10.85;;;9.70;;
20065;SDS011;10193;48.884;9.182;2023-03-02T10:51:26;11.60;;;9.80;;
20065;SDS011;10193;48.884;9.182;2023-03-02T10:54:04;11.73;;;10.10;;
20065;SDS011;10193;48.884;9.182;2023-03-02T10:56:32;10.88;;;9.75;;
20065;SDS011;10193;48.884;9.182;2023-03-02T10:58:59;11.60;;;9.20;;
20065;SDS011;10193;48.884;9.182;2023-03-02T11:01:28;11.25;;;9.60;;
20065;SDS011;10193;48.884;9.182;2023-03-02T11:03:56;10.88;;;9.25;;
20065;SDS011;10193;48.884;9.182;2023-03-02T11:06:26;11.30;;;9.35;;
20065;SDS011;10193;48.884;9.182;2023-03-02T11:08:57;10.98;;;9.50;;
20065;SDS011;10193;48.884;9.182;2023-03-02T11:11:25;10.63;;;9.05;;
20065;SDS011;10193;48.884;9.182;2023-03-02T11:13:51;11.20;;;9.02;;
20065;SDS011;10193;48.884;9.182;2023-03-02T11:16:21;10.45;;;9.18;;
20065;SDS011;10193;48.884;9.182;2023-03-02T11:18:51;10.32;;;8.98;;
20065;SDS011;10193;48.884;9.182;2023-03-02T11:21:23;10.85;;;9.10;;
20065;SDS011;10193;48.884;9.182;2023-03-02T11:23:56;9.90;;;8.90;;
20065;SDS011;10193;48.884;9.182;2023-03-02T11:26:32;11.95;;;9.60;;
20065;SDS011;10193;48.884;9.182;2023-03-02T11:29:03;10.95;;;9.43;;
20065;SDS011;10193;48.884;9.182;2023-03-02T11:31:37;10.10;;;9.05;;
20065;SDS011;10193;48.884;9.182;2023-03-02T11:34:25;12.45;;;9.13;;
20065;SDS011;10193;48.884;9.182;2023-03-02T11:37:03;10.02;;;9.02;;
20065;SDS011;10193;48.884;9.182;2023-03-02T11:39:54;11.98;;;10.07;;
20065;SDS011;10193;48.884;9.182;2023-03-02T11:42:30;11.07;;;9.45;;
20065;SDS011;10193;48.884;9.182;2023-03-02T11:45:00;11.18;;;8.77;;
20065;SDS011;10193;48.884;9.182;2023-03-02T11:47:29;10.52;;;9.15;;
20065;SDS011;10193;48.884;9.182;2023-03-02T11:49:59;9.82;;;8.82;;
20065;SDS011;10193;48.884;9.182;2023-03-02T11:52:31;10.65;;;9.55;;
20065;SDS011;10193;48.884;9.182;2023-03-02T11:55:02;12.13;;;9.23;;
20065;SDS011;10193;48.884;9.182;2023-03-02T11:57:36;11.10;;;9.35;;
20065;SDS011;10193;48.884;9.182;2023-03-02T12:00:10;10.98;;;9.25;;
20065;SDS011;10193;48.884;9.182;2023-03-02T12:02:56;10.38;;;9.18;;
20065;SDS011;10193;48.884;9.182;2023-03-02T12:05:28;10.40;;;9.25;;
20065;SDS011;10193;48.884;9.182;2023-03-02T12:07:58;9.95;;;8.90;;
20065;SDS011;10193;48.884;9.182;2023-03-02T12:10:30;9.70;;;8.68;;
20065;SDS011;10193;48.884;9.182;2023-03-02T12:12:59;10.27;;;8.93;;
20065;SDS011;10193;48.884;9.182;2023-03-02T12:15:36;9.57;;;8.52;;
20065;SDS011;10193;48.884;9.182;2023-03-02T12:18:26;9.75;;;8.35;;
20065;SDS011;10193;48.884;9.182;2023-03-02T12:20:58;9.20;;;8.15;;
20065;SDS011;10193;48.884;9.182;2023-03-02T12:23:29;10.27;;;8.80;;
20065;SDS011;10193;48.884;9.182;2023-03-02T12:26:01;11.73;;;9.13;;
20065;SDS011;10193;48.884;9.182;2023-03-02T12:28:32;10.13;;;8.73;;
20065;SDS011;10193;48.884;9.182;2023-03-02T12:31:04;11.25;;;9.43;;
20065;SDS011;10193;48.884;9.182;2023-03-02T12:33:37;10.88;;;9.30;;
20065;SDS011;10193;48.884;9.182;2023-03-02T12:36:12;11.27;;;9.20;;
20065;SDS011;10193;48.884;9.182;2023-03-02T12:38:45;9.65;;;8.65;;
20065;SDS011;10193;48.884;9.182;2023-03-02T12:41:21;10.40;;;9.27;;
20065;SDS011;10193;48.884;9.182;2023-03-02T12:43:59;10.82;;;9.20;;
20065;SDS011;10193;48.884;9.182;2023-03-02T12:46:38;10.98;;;9.65;;
20065;SDS011;10193;48.884;9.182;2023-03-02T12:49:13;11.45;;;10.02;;
20065;SDS011;10193;48.884;9.182;2023-03-02T12:51:47;10.48;;;9.02;;
20065;SDS011;10193;48.884;9.182;2023-03-02T12:54:18;12.63;;;9.52;;
20065;SDS011;10193;48.884;9.182;2023-03-02T12:56:46;10.65;;;8.93;;
20065;SDS011;10193;48.884;9.182;2023-03-02T12:59:21;11.77;;;8.73;;
20065;SDS011;10193;48.884;9.182;2023-03-02T13:01:48;10.38;;;9.27;;
20065;SDS011;10193;48.884;9.182;2023-03-02T13:04:19;10.80;;;9.68;;
20065;SDS011;10193;48.884;9.182;2023-03-02T13:06:46;11.32;;;9.23;;
20065;SDS011;10193;48.884;9.182;2023-03-02T13:09:13;10.80;;;9.70;;
20065;SDS011;10193;48.884;9.182;2023-03-02T13:11:42;10.65;;;9.55;;
20065;SDS011;10193;48.884;9.182;2023-03-02T13:14:16;11.38;;;9.88;;
20065;SDS011;10193;48.884;9.182;2023-03-02T13:16:52;11.18;;;9.95;;
20065;SDS011;10193;48.884;9.182;2023-03-02T13:19:19;10.30;;;8.85;;
20065;SDS011;10193;48.884;9.182;2023-03-02T13:21:47;10.40;;;9.02;;
20065;SDS011;10193;48.884;9.182;2023-03-02T13:27:06;10.80;;;8.77;;
20065;SDS011;10193;48.884;9.182;2023-03-02T13:29:39;12.07;;;9.82;;
20065;SDS011;10193;48.884;9.182;2023-03-02T13:32:13;10.70;;;9.60;;
20065;SDS011;10193;48.884;9.182;2023-03-02T13:34:45;9.93;;;8.70;;
20065;SDS011;10193;48.884;9.182;2023-03-02T13:37:17;10.55;;;9.45;;
20065;SDS011;10193;48.884;9.182;2023-03-02T13:39:53;11.50;;;8.98;;
20065;SDS011;10193;48.884;9.182;2023-03-02T13:42:26;10.75;;;9.65;;
20065;SDS011;10193;48.884;9.182;2023-03-02T13:45:07;9.68;;;8.75;;
20065;SDS011;10193;48.884;9.182;2023-03-02T13:47:44;11.07;;;9.52;;
20065;SDS011;10193;48.884;9.182;2023-03-02T13:50:15;11.38;;;9.70;;
20065;SDS011;10193;48.884;9.182;2023-03-02T13:52:43;10.60;;;9.13;;
20065;SDS011;10193;48.884;9.182;2023-03-02T13:55:11;11.55;;;9.68;;
20065;SDS011;10193;48.884;9.182;2023-03-02T13:57:40;11.90;;;9.88;;
20065;SDS011;10193;48.884;9.182;2023-03-02T14:00:10;12.13;;;10.00;;
20065;SDS011;10193;48.884;9.182;2023-03-02T14:02:39;13.52;;;10.13;;
20065;SDS011;10193;48.884;9.182;2023-03-02T14:05:08;10.15;;;8.90;;
20065;SDS011;10193;48.884;9.182;2023-03-02T14:07:41;10.95;;;9.48;;
20065;SDS011;10193;48.884;9.182;2023-03-02T14:10:08;11.25;;;10.05;;
20065;SDS011;10193;48.884;9.182;2023-03-02T14:12:36;11.50;;;9.63;;
20065;SDS011;10193;48.884;9.182;2023-03-02T14:15:09;11.80;;;9.88;;
20065;SDS011;10193;48.884;9.182;2023-03-02T14:17:39;10.68;;;9.55;;
20065;SDS011;10193;48.884;9.182;2023-03-02T14:20:09;9.95;;;8.95;;
20065;SDS011;10193;48.884;9.182;2023-03-02T14:22:37;10.43;;;9.32;;
20065;SDS011;10193;48.884;9.182;2023-03-02T14:25:04;10.93;;;9.30;;
20065;SDS011;10193;48.884;9.182;2023-03-02T14:27:32;10.73;;;9.63;;
20065;SDS011;10193;48.884;9.182;2023-03-02T14:29:59;10.02;;;8.95;;
20065;SDS011;10193;48.884;9.182;2023-03-02T14:32:27;9.90;;;8.90;;
20065;SDS011;10193;48.884;9.182;2023-03-02T14:34:54;10.77;;;9.35;;
20065;SDS011;10193;48.884;9.182;2023-03-02T14:37:21;10.65;;;9.48;;
20065;SDS011;10193;48.884;9.182;2023-03-02T14:39:52;10.35;;;8.65;;
20065;SDS011;10193;48.884;9.182;2023-03-02T14:42:19;10.60;;;8.98;;
20065;SDS011;10193;48.884;9.182;2023-03-02T14:44:48;11.02;;;9.35;;